sensor_id;sensor_type;location;lat;lon;timestamp;P1;durP1;ratioP1;P2;durP2;ratioP2
52934;SDS011;38802;50.198;19.796;2023-03-01T00:01:35;44.40;;;23.50;;
52934;SDS011;38802;50.198;19.796;2023-03-01T00:04:03;47.90;;;24.50;;
52934;SDS011;38802;50.198;19.796;2023-03-01T00:06:31;43.30;;;22.40;;
52934;SDS011;38802;50.198;19.796;2023-03-01T00:09:00;38.10;;;22.90;;
52934;SDS011;38802;50.198;19.796;2023-03-01T00:11:28;41.70;;;23.60;;
52934;SDS011;38802;50.198;19.796;2023-03-01T00:13:58;39.10;;;23.50;;
52934;SDS011;38802;50.198;19.796;2023-03-01T00:16:35;40.20;;;23.70;;
52934;SDS011;38802;50.198;19.796;2023-03-01T00:19:13;52.00;;;26.50;;
52934;SDS011;38802;50.198;19.796;2023-03-01T00:21:43;47.30;;;25.20;;
52934;SDS011;38802;50.198;19.796;2023-03-01T00:24:11;48.70;;;40.10;;
52934;SDS011;38802;50.198;19.796;2023-03-01T00:26:57;61.60;;;30.20;;
52934;SDS011;38802;50.198;19.796;2023-03-01T00:29:27;47.60;;;25.00;;
52934;SDS011;38802;50.198;19.796;2023-03-01T00:31:55;45.10;;;26.10;;
52934;SDS011;38802;50.198;19.796;2023-03-01T00:34:23;39.80;;;22.10;;
52934;SDS011;38802;50.198;19.796;2023-03-01T00:36:51;37.90;;;21.40;;
52934;SDS011;38802;50.198;19.796;2023-03-01T00:39:19;37.20;;;21.50;;
52934;SDS011;38802;50.198;19.796;2023-03-01T00:41:47;37.10;;;19.00;;
52934;SDS011;38802;50.198;19.796;2023-03-01T00:44:15;44.80;;;20.80;;
52934;SDS011;38802;50.198;19.796;2023-03-01T00:46:43;29.70;;;19.00;;
52934;SDS011;38802;50.198;19.796;2023-03-01T00:49:11;27.10;;;18.90;;
52934;SDS011;38802;50.198;19.796;2023-03-01T00:51:39;33.00;;;19.20;;
52934;SDS011;38802;50.198;19.796;2023-03-01T00:54:09;39.80;;;19.80;;
52934;SDS011;38802;50.198;19.796;2023-03-01T00:56:37;27.90;;;17.60;;
52934;SDS011;38802;50.198;19.796;2023-03-01T00:59:05;30.60;;;17.10;;
52934;SDS011;38802;50.198;19.796;2023-03-01T01:01:33;25.40;;;17.50;;
52934;SDS011;38802;50.198;19.796;2023-03-01T01:04:02;29.70;;;18.40;;
52934;SDS011;38802;50.198;19.796;2023-03-01T01:06:33;29.80;;;19.50;;
52934;SDS011;38802;50.198;19.796;2023-03-01T01:09:07;35.70;;;19.80;;
52934;SDS011;38802;50.198;19.796;2023-03-01T01:11:35;33.20;;;19.70;;
52934;SDS011;38802;50.198;19.796;2023-03-01T01:14:06;35.30;;;20.70;;
52934;SDS011;38802;50.198;19.796;2023-03-01T01:16:34;42.80;;;25.10;;
52934;SDS011;38802;50.198;19.796;2023-03-01T01:19:03;42.40;;;24.10;;
52934;SDS011;38802;50.198;19.796;2023-03-01T01:21:31;46.50;;;25.30;;
52934;SDS011;38802;50.198;19.796;2023-03-01T01:24:00;59.70;;;28.10;;
52934;SDS011;38802;50.198;19.796;2023-03-01T01:26:28;50.10;;;28.90;;
52934;SDS011;38802;50.198;19.796;2023-03-01T01:28:59;74.80;;;39.90;;
52934;SDS011;38802;50.198;19.796;2023-03-01T01:31:28;71.30;;;37.60;;
52934;SDS011;38802;50.198;19.796;2023-03-01T01:33:57;66.30;;;34.10;;
52934;SDS011;38802;50.198;19.796;2023-03-01T01:36:27;33.60;;;21.80;;
52934;SDS011;38802;50.198;19.796;2023-03-01T01:38:56;38.80;;;23.30;;
52934;SDS011;38802;50.198;19.796;2023-03-01T01:41:25;35.10;;;20.70;;
52934;SDS011;38802;50.198;19.796;2023-03-01T01:49:31;29.00;;;16.80;;
52934;SDS011;38802;50.198;19.796;2023-03-01T01:54:51;27.20;;;17.20;;
52934;SDS011;38802;50.198;19.796;2023-03-01T01:57:22;24.60;;;16.60;;
52934;SDS011;38802;50.198;19.796;2023-03-01T01:59:54;29.30;;;19.50;;
52934;SDS011;38802;50.198;19.796;2023-03-01T02:02:26;37.30;;;22.80;;
52934;SDS011;38802;50.198;19.796;2023-03-01T02:05:02;30.80;;;20.50;;
52934;SDS011;38802;50.198;19.796;2023-03-01T02:07:38;33.60;;;21.10;;
52934;SDS011;38802;50.198;19.796;2023-03-01T02:10:07;33.00;;;19.40;;
52934;SDS011;38802;50.198;19.796;2023-03-01T02:12:36;30.90;;;19.90;;
52934;SDS011;38802;50.198;19.796;2023-03-01T02:15:12;55.30;;;29.10;;
52934;SDS011;38802;50.198;19.796;2023-03-01T02:17:40;40.20;;;23.80;;
52934;SDS011;38802;50.198;19.796;2023-03-01T02:22:58;101.20;;;43.50;;
52934;SDS011;38802;50.198;19.796;2023-03-01T02:28:19;32.10;;;19.60;;
52934;SDS011;38802;50.198;19.796;2023-03-01T02:30:48;47.00;;;24.40;;
52934;SDS011;38802;50.198;19.796;2023-03-01T02:33:46;33.70;;;19.30;;
52934;SDS011;38802;50.198;19.796;2023-03-01T02:36:26;33.50;;;20.00;;
52934;SDS011;38802;50.198;19.796;2023-03-01T02:38:59;30.40;;;19.70;;
52934;SDS011;38802;50.198;19.796;2023-03-01T02:41:30;26.00;;;17.70;;
52934;SDS011;38802;50.198;19.796;2023-03-01T02:44:03;25.10;;;16.90;;
52934;SDS011;38802;50.198;19.796;2023-03-01T02:46:32;30.20;;;17.70;;
52934;SDS011;38802;50.198;19.796;2023-03-01T02:49:00;25.50;;;16.20;;
52934;SDS011;38802;50.198;19.796;2023-03-01T02:57:04;29.30;;;17.50;;
52934;SDS011;38802;50.198;19.796;2023-03-01T02:59:34;25.90;;;17.10;;
52934;SDS011;38802;50.198;19.796;2023-03-01T03:02:17;25.70;;;15.60;;
52934;SDS011;38802;50.198;19.796;2023-03-01T03:05:30;21.40;;;16.10;;
52934;SDS011;38802;50.198;19.796;2023-03-01T03:08:00;25.20;;;17.20;;
52934;SDS011;38802;50.198;19.796;2023-03-01T03:10:33;35.30;;;19.00;;
52934;SDS011;38802;50.198;19.796;2023-03-01T03:13:09;27.70;;;18.20;;
52934;SDS011;38802;50.198;19.796;2023-03-01T03:15:39;38.60;;;21.90;;
52934;SDS011;38802;50.198;19.796;2023-03-01T03:18:09;41.70;;;23.40;;
52934;SDS011;38802;50.198;19.796;2023-03-01T03:20:40;30.50;;;18.60;;
52934;SDS011;38802;50.198;19.796;2023-03-01T03:23:10;27.10;;;16.70;;
52934;SDS011;38802;50.198;19.796;2023-03-01T03:25:39;31.90;;;17.20;;
52934;SDS011;38802;50.198;19.796;2023-03-01T03:28:07;28.30;;;16.80;;
52934;SDS011;38802;50.198;19.796;2023-03-01T03:30:38;23.20;;;15.50;;
52934;SDS011;38802;50.198;19.796;2023-03-01T03:33:08;22.10;;;15.20;;
52934;SDS011;38802;50.198;19.796;2023-03-01T03:35:44;30.10;;;17.60;;
52934;SDS011;38802;50.198;19.796;2023-03-01T03:38:14;23.00;;;16.40;;
52934;SDS011;38802;50.198;19.796;2023-03-01T03:41:06;25.50;;;16.90;;
52934;SDS011;38802;50.198;19.796;2023-03-01T03:43:36;35.70;;;23.40;;
52934;SDS011;38802;50.198;19.796;2023-03-01T03:46:05;30.70;;;20.00;;
52934;SDS011;38802;50.198;19.796;2023-03-01T03:48:35;31.90;;;19.00;;
52934;SDS011;38802;50.198;19.796;2023-03-01T03:51:05;28.90;;;17.70;;
52934;SDS011;38802;50.198;19.796;2023-03-01T03:53:34;61.70;;;34.90;;
52934;SDS011;38802;50.198;19.796;2023-03-01T03:56:05;44.00;;;25.50;;
52934;SDS011;38802;50.198;19.796;2023-03-01T03:58:33;80.30;;;41.70;;
52934;SDS011;38802;50.198;19.796;2023-03-01T04:01:02;60.40;;;30.00;;
52934;SDS011;38802;50.198;19.796;2023-03-01T04:03:30;40.10;;;22.90;;
52934;SDS011;38802;50.198;19.796;2023-03-01T04:05:59;40.80;;;22.70;;
52934;SDS011;38802;50.198;19.796;2023-03-01T04:08:28;116.20;;;55.10;;
52934;SDS011;38802;50.198;19.796;2023-03-01T04:11:00;81.10;;;40.60;;
52934;SDS011;38802;50.198;19.796;2023-03-01T04:13:50;37.90;;;21.20;;
52934;SDS011;38802;50.198;19.796;2023-03-01T04:16:23;62.40;;;32.50;;
52934;SDS011;38802;50.198;19.796;2023-03-01T04:18:52;34.70;;;20.50;;
52934;SDS011;38802;50.198;19.796;2023-03-01T04:21:21;29.90;;;19.10;;
52934;SDS011;38802;50.198;19.796;2023-03-01T04:23:49;32.20;;;19.40;;
52934;SDS011;38802;50.198;19.796;2023-03-01T04:26:20;32.00;;;19.10;;
52934;SDS011;38802;50.198;19.796;2023-03-01T04:28:48;27.50;;;18.40;;
52934;SDS011;38802;50.198;19.796;2023-03-01T04:31:18;27.30;;;16.90;;
52934;SDS011;38802;50.198;19.796;2023-03-01T04:33:50;28.80;;;17.30;;
52934;SDS011;38802;50.198;19.796;2023-03-01T04:36:24;35.40;;;17.10;;
52934;SDS011;38802;50.198;19.796;2023-03-01T04:38:54;26.70;;;17.00;;
52934;SDS011;38802;50.198;19.796;2023-03-01T04:41:24;32.90;;;18.00;;
52934;SDS011;38802;50.198;19.796;2023-03-01T04:43:52;33.60;;;20.00;;
52934;SDS011;38802;50.198;19.796;2023-03-01T04:46:21;28.50;;;19.50;;
52934;SDS011;38802;50.198;19.796;2023-03-01T04:48:49;34.20;;;21.80;;
52934;SDS011;38802;50.198;19.796;2023-03-01T04:51:17;37.10;;;23.20;;
52934;SDS011;38802;50.198;19.796;2023-03-01T04:53:46;32.80;;;19.70;;
52934;SDS011;38802;50.198;19.796;2023-03-01T04:56:14;30.20;;;19.30;;
52934;SDS011;38802;50.198;19.796;2023-03-01T04:58:43;29.40;;;19.00;;
52934;SDS011;38802;50.198;19.796;2023-03-01T05:01:12;28.90;;;16.90;;
52934;SDS011;38802;50.198;19.796;2023-03-01T05:03:44;31.50;;;18.10;;
52934;SDS011;38802;50.198;19.796;2023-03-01T05:06:13;32.30;;;17.20;;
52934;SDS011;38802;50.198;19.796;2023-03-01T05:08:42;38.30;;;18.40;;
52934;SDS011;38802;50.198;19.796;2023-03-01T05:11:10;36.30;;;19.30;;
52934;SDS011;38802;50.198;19.796;2023-03-01T05:13:39;36.20;;;21.80;;
52934;SDS011;38802;50.198;19.796;2023-03-01T05:16:08;32.90;;;18.60;;
52934;SDS011;38802;50.198;19.796;2023-03-01T05:18:40;31.20;;;19.80;;
52934;SDS011;38802;50.198;19.796;2023-03-01T05:21:11;38.40;;;19.30;;
52934;SDS011;38802;50.198;19.796;2023-03-01T05:23:40;36.50;;;19.70;;
52934;SDS011;38802;50.198;19.796;2023-03-01T05:26:08;31.30;;;20.60;;
52934;SDS011;38802;50.198;19.796;2023-03-01T05:28:54;34.40;;;18.50;;
52934;SDS011;38802;50.198;19.796;2023-03-01T05:31:27;22.70;;;17.70;;
52934;SDS011;38802;50.198;19.796;2023-03-01T05:33:56;28.80;;;19.50;;
52934;SDS011;38802;50.198;19.796;2023-03-01T05:36:24;30.60;;;18.30;;
52934;SDS011;38802;50.198;19.796;2023-03-01T05:38:52;35.30;;;21.80;;
52934;SDS011;38802;50.198;19.796;2023-03-01T05:41:20;66.50;;;36.40;;
52934;SDS011;38802;50.198;19.796;2023-03-01T05:43:48;56.20;;;30.40;;
52934;SDS011;38802;50.198;19.796;2023-03-01T05:46:16;52.70;;;26.60;;
52934;SDS011;38802;50.198;19.796;2023-03-01T05:48:44;26.60;;;17.50;;
52934;SDS011;38802;50.198;19.796;2023-03-01T05:51:12;26.50;;;17.20;;
52934;SDS011;38802;50.198;19.796;2023-03-01T05:53:40;30.80;;;16.30;;
52934;SDS011;38802;50.198;19.796;2023-03-01T05:56:08;28.80;;;18.40;;
52934;SDS011;38802;50.198;19.796;2023-03-01T05:58:36;48.50;;;24.90;;
52934;SDS011;38802;50.198;19.796;2023-03-01T06:01:10;51.00;;;22.50;;
52934;SDS011;38802;50.198;19.796;2023-03-01T06:03:40;37.40;;;19.40;;
52934;SDS011;38802;50.198;19.796;2023-03-01T06:06:08;38.00;;;20.50;;
52934;SDS011;38802;50.198;19.796;2023-03-01T06:08:36;142.90;;;54.70;;
52934;SDS011;38802;50.198;19.796;2023-03-01T06:11:04;97.30;;;40.50;;
52934;SDS011;38802;50.198;19.796;2023-03-01T06:13:32;112.80;;;46.50;;
52934;SDS011;38802;50.198;19.796;2023-03-01T06:16:03;116.10;;;46.50;;
52934;SDS011;38802;50.198;19.796;2023-03-01T06:18:32;64.80;;;31.90;;
52934;SDS011;38802;50.198;19.796;2023-03-01T06:21:00;47.50;;;23.60;;
52934;SDS011;38802;50.198;19.796;2023-03-01T06:23:28;30.30;;;16.90;;
52934;SDS011;38802;50.198;19.796;2023-03-01T06:25:56;32.90;;;17.20;;
52934;SDS011;38802;50.198;19.796;2023-03-01T06:28:43;24.90;;;15.80;;
52934;SDS011;38802;50.198;19.796;2023-03-01T06:31:13;20.80;;;16.10;;
52934;SDS011;38802;50.198;19.796;2023-03-01T06:33:41;23.80;;;15.20;;
52934;SDS011;38802;50.198;19.796;2023-03-01T06:36:09;24.80;;;14.50;;
52934;SDS011;38802;50.198;19.796;2023-03-01T06:38:38;26.80;;;15.80;;
52934;SDS011;38802;50.198;19.796;2023-03-01T06:41:08;24.50;;;15.50;;
52934;SDS011;38802;50.198;19.796;2023-03-01T06:43:36;26.70;;;15.30;;
52934;SDS011;38802;50.198;19.796;2023-03-01T06:46:05;27.40;;;15.50;;
52934;SDS011;38802;50.198;19.796;2023-03-01T06:48:34;31.70;;;16.80;;
52934;SDS011;38802;50.198;19.796;2023-03-01T06:51:03;30.30;;;16.90;;
52934;SDS011;38802;50.198;19.796;2023-03-01T06:53:31;29.10;;;17.30;;
52934;SDS011;38802;50.198;19.796;2023-03-01T06:55:59;25.70;;;15.50;;
52934;SDS011;38802;50.198;19.796;2023-03-01T06:58:30;31.30;;;18.60;;
52934;SDS011;38802;50.198;19.796;2023-03-01T07:00:58;25.30;;;14.70;;
52934;SDS011;38802;50.198;19.796;2023-03-01T07:03:26;28.00;;;16.00;;
52934;SDS011;38802;50.198;19.796;2023-03-01T07:05:54;35.50;;;17.40;;
52934;SDS011;38802;50.198;19.796;2023-03-01T07:08:22;29.10;;;15.00;;
52934;SDS011;38802;50.198;19.796;2023-03-01T07:10:56;32.80;;;17.50;;
52934;SDS011;38802;50.198;19.796;2023-03-01T07:13:26;27.20;;;16.20;;
52934;SDS011;38802;50.198;19.796;2023-03-01T07:15:54;23.40;;;14.30;;
52934;SDS011;38802;50.198;19.796;2023-03-01T07:18:23;32.20;;;16.20;;
52934;SDS011;38802;50.198;19.796;2023-03-01T07:20:51;32.50;;;17.20;;
52934;SDS011;38802;50.198;19.796;2023-03-01T07:23:20;25.70;;;15.30;;
52934;SDS011;38802;50.198;19.796;2023-03-01T07:25:52;21.90;;;14.20;;
52934;SDS011;38802;50.198;19.796;2023-03-01T07:28:24;17.60;;;13.80;;
52934;SDS011;38802;50.198;19.796;2023-03-01T07:30:52;20.00;;;13.30;;
52934;SDS011;38802;50.198;19.796;2023-03-01T07:33:20;21.60;;;13.50;;
52934;SDS011;38802;50.198;19.796;2023-03-01T07:35:55;23.80;;;14.70;;
52934;SDS011;38802;50.198;19.796;2023-03-01T07:38:24;24.10;;;13.80;;
52934;SDS011;38802;50.198;19.796;2023-03-01T07:40:54;14.20;;;11.40;;
52934;SDS011;38802;50.198;19.796;2023-03-01T07:43:27;15.40;;;12.20;;
52934;SDS011;38802;50.198;19.796;2023-03-01T07:45:59;20.20;;;13.00;;
52934;SDS011;38802;50.198;19.796;2023-03-01T07:48:29;20.30;;;13.00;;
52934;SDS011;38802;50.198;19.796;2023-03-01T07:51:02;23.10;;;14.80;;
52934;SDS011;38802;50.198;19.796;2023-03-01T07:53:32;26.60;;;15.30;;
52934;SDS011;38802;50.198;19.796;2023-03-01T07:56:11;25.40;;;15.90;;
52934;SDS011;38802;50.198;19.796;2023-03-01T07:58:41;25.40;;;16.20;;
52934;SDS011;38802;50.198;19.796;2023-03-01T08:01:16;26.50;;;17.70;;
52934;SDS011;38802;50.198;19.796;2023-03-01T08:03:47;28.50;;;16.70;;
52934;SDS011;38802;50.198;19.796;2023-03-01T08:06:16;27.40;;;16.40;;
52934;SDS011;38802;50.198;19.796;2023-03-01T08:08:45;28.00;;;17.10;;
52934;SDS011;38802;50.198;19.796;2023-03-01T08:11:14;31.90;;;18.40;;
52934;SDS011;38802;50.198;19.796;2023-03-01T08:13:43;25.80;;;15.30;;
52934;SDS011;38802;50.198;19.796;2023-03-01T08:16:12;29.90;;;16.80;;
52934;SDS011;38802;50.198;19.796;2023-03-01T08:18:42;30.40;;;18.70;;
52934;SDS011;38802;50.198;19.796;2023-03-01T08:21:12;26.50;;;16.60;;
52934;SDS011;38802;50.198;19.796;2023-03-01T08:23:43;26.20;;;17.10;;
52934;SDS011;38802;50.198;19.796;2023-03-01T08:26:16;24.30;;;15.70;;
52934;SDS011;38802;50.198;19.796;2023-03-01T08:28:47;26.20;;;15.40;;
52934;SDS011;38802;50.198;19.796;2023-03-01T08:31:17;21.20;;;13.60;;
52934;SDS011;38802;50.198;19.796;2023-03-01T08:33:49;21.30;;;13.30;;
52934;SDS011;38802;50.198;19.796;2023-03-01T08:36:23;23.10;;;13.80;;
52934;SDS011;38802;50.198;19.796;2023-03-01T08:38:53;23.00;;;14.50;;
52934;SDS011;38802;50.198;19.796;2023-03-01T08:41:22;23.10;;;14.20;;
52934;SDS011;38802;50.198;19.796;2023-03-01T08:43:51;28.50;;;13.90;;
52934;SDS011;38802;50.198;19.796;2023-03-01T08:46:20;25.20;;;14.90;;
52934;SDS011;38802;50.198;19.796;2023-03-01T08:48:48;26.40;;;15.80;;
52934;SDS011;38802;50.198;19.796;2023-03-01T08:51:17;27.00;;;14.70;;
52934;SDS011;38802;50.198;19.796;2023-03-01T08:53:50;23.00;;;15.10;;
52934;SDS011;38802;50.198;19.796;2023-03-01T08:56:18;23.10;;;14.30;;
52934;SDS011;38802;50.198;19.796;2023-03-01T08:58:47;23.50;;;14.90;;
52934;SDS011;38802;50.198;19.796;2023-03-01T09:01:18;19.50;;;14.70;;
52934;SDS011;38802;50.198;19.796;2023-03-01T09:03:46;22.20;;;14.20;;
52934;SDS011;38802;50.198;19.796;2023-03-01T09:06:15;20.00;;;14.20;;
52934;SDS011;38802;50.198;19.796;2023-03-01T09:08:46;19.00;;;14.40;;
52934;SDS011;38802;50.198;19.796;2023-03-01T09:11:19;25.90;;;15.90;;
52934;SDS011;38802;50.198;19.796;2023-03-01T09:13:49;23.80;;;14.80;;
52934;SDS011;38802;50.198;19.796;2023-03-01T09:16:18;24.70;;;15.20;;
52934;SDS011;38802;50.198;19.796;2023-03-01T09:18:49;20.70;;;14.30;;
52934;SDS011;38802;50.198;19.796;2023-03-01T09:21:19;19.90;;;14.00;;
52934;SDS011;38802;50.198;19.796;2023-03-01T09:24:08;21.60;;;14.50;;
52934;SDS011;38802;50.198;19.796;2023-03-01T09:26:41;21.70;;;14.30;;
52934;SDS011;38802;50.198;19.796;2023-03-01T09:29:10;19.60;;;14.30;;
52934;SDS011;38802;50.198;19.796;2023-03-01T09:31:38;25.50;;;15.80;;
52934;SDS011;38802;50.198;19.796;2023-03-01T09:34:06;24.70;;;14.30;;
52934;SDS011;38802;50.198;19.796;2023-03-01T09:36:35;28.30;;;14.60;;
52934;SDS011;38802;50.198;19.796;2023-03-01T09:39:04;18.60;;;12.20;;
52934;SDS011;38802;50.198;19.796;2023-03-01T09:44:13;21.70;;;15.40;;
52934;SDS011;38802;50.198;19.796;2023-03-01T09:47:05;27.30;;;16.20;;
52934;SDS011;38802;50.198;19.796;2023-03-01T09:49:39;22.90;;;14.80;;
52934;SDS011;38802;50.198;19.796;2023-03-01T09:55:29;26.70;;;15.70;;
52934;SDS011;38802;50.198;19.796;2023-03-01T10:01:39;18.20;;;13.00;;
52934;SDS011;38802;50.198;19.796;2023-03-01T10:09:34;25.20;;;15.90;;
52934;SDS011;38802;50.198;19.796;2023-03-01T10:12:09;24.10;;;15.50;;
52934;SDS011;38802;50.198;19.796;2023-03-01T10:14:57;23.70;;;14.10;;
52934;SDS011;38802;50.198;19.796;2023-03-01T10:17:47;22.90;;;15.70;;
52934;SDS011;38802;50.198;19.796;2023-03-01T10:20:22;22.90;;;15.60;;
52934;SDS011;38802;50.198;19.796;2023-03-01T10:22:53;26.70;;;15.70;;
52934;SDS011;38802;50.198;19.796;2023-03-01T10:25:44;27.60;;;16.30;;
52934;SDS011;38802;50.198;19.796;2023-03-01T10:31:34;28.40;;;15.80;;
52934;SDS011;38802;50.198;19.796;2023-03-01T10:34:11;32.40;;;19.00;;
52934;SDS011;38802;50.198;19.796;2023-03-01T10:36:41;32.20;;;18.10;;
52934;SDS011;38802;50.198;19.796;2023-03-01T10:39:14;32.80;;;18.00;;
52934;SDS011;38802;50.198;19.796;2023-03-01T10:49:51;31.50;;;20.00;;
52934;SDS011;38802;50.198;19.796;2023-03-01T10:52:22;35.20;;;19.40;;
52934;SDS011;38802;50.198;19.796;2023-03-01T10:55:20;40.60;;;21.10;;
52934;SDS011;38802;50.198;19.796;2023-03-01T11:01:00;38.40;;;20.90;;
52934;SDS011;38802;50.198;19.796;2023-03-01T11:03:34;33.40;;;20.00;;
52934;SDS011;38802;50.198;19.796;2023-03-01T11:08:40;32.70;;;20.00;;
52934;SDS011;38802;50.198;19.796;2023-03-01T11:19:32;42.10;;;21.70;;
52934;SDS011;38802;50.198;19.796;2023-03-01T11:27:40;31.20;;;19.20;;
52934;SDS011;38802;50.198;19.796;2023-03-01T11:36:04;28.20;;;18.70;;
52934;SDS011;38802;50.198;19.796;2023-03-01T11:38:35;36.40;;;21.00;;
52934;SDS011;38802;50.198;19.796;2023-03-01T11:41:13;37.40;;;19.20;;
52934;SDS011;38802;50.198;19.796;2023-03-01T11:43:52;31.50;;;19.50;;
52934;SDS011;38802;50.198;19.796;2023-03-01T11:59:55;36.80;;;21.90;;
52934;SDS011;38802;50.198;19.796;2023-03-01T12:05:34;24.70;;;17.70;;
52934;SDS011;38802;50.198;19.796;2023-03-01T12:08:35;33.40;;;19.30;;
52934;SDS011;38802;50.198;19.796;2023-03-01T12:11:16;30.90;;;17.60;;
52934;SDS011;38802;50.198;19.796;2023-03-01T12:20:25;35.90;;;19.70;;
52934;SDS011;38802;50.198;19.796;2023-03-01T12:40:21;22.90;;;14.80;;
52934;SDS011;38802;50.198;19.796;2023-03-01T12:43:10;20.80;;;14.90;;
52934;SDS011;38802;50.198;19.796;2023-03-01T12:51:28;26.50;;;15.20;;
52934;SDS011;38802;50.198;19.796;2023-03-01T12:53:59;24.80;;;16.00;;
52934;SDS011;38802;50.198;19.796;2023-03-01T12:56:34;21.60;;;14.20;;
52934;SDS011;38802;50.198;19.796;2023-03-01T12:59:26;25.60;;;16.00;;
52934;SDS011;38802;50.198;19.796;2023-03-01T13:02:26;29.80;;;17.80;;
52934;SDS011;38802;50.198;19.796;2023-03-01T13:05:21;16.70;;;11.80;;
52934;SDS011;38802;50.198;19.796;2023-03-01T13:08:06;18.90;;;13.50;;
52934;SDS011;38802;50.198;19.796;2023-03-01T13:10:46;28.30;;;15.80;;
52934;SDS011;38802;50.198;19.796;2023-03-01T13:13:21;20.40;;;12.90;;
52934;SDS011;38802;50.198;19.796;2023-03-01T13:15:51;16.90;;;12.60;;
52934;SDS011;38802;50.198;19.796;2023-03-01T13:20:50;21.80;;;15.00;;
52934;SDS011;38802;50.198;19.796;2023-03-01T13:23:35;25.70;;;14.80;;
52934;SDS011;38802;50.198;19.796;2023-03-01T13:33:44;19.00;;;12.60;;
52934;SDS011;38802;50.198;19.796;2023-03-01T13:42:00;19.60;;;11.40;;
52934;SDS011;38802;50.198;19.796;2023-03-01T13:44:37;19.30;;;12.30;;
52934;SDS011;38802;50.198;19.796;2023-03-01T13:52:59;18.10;;;12.50;;
52934;SDS011;38802;50.198;19.796;2023-03-01T13:55:32;15.50;;;11.50;;
52934;SDS011;38802;50.198;19.796;2023-03-01T13:58:04;15.80;;;12.00;;
52934;SDS011;38802;50.198;19.796;2023-03-01T14:00:42;16.70;;;12.30;;
52934;SDS011;38802;50.198;19.796;2023-03-01T14:03:15;14.00;;;10.80;;
52934;SDS011;38802;50.198;19.796;2023-03-01T14:08:43;15.20;;;11.70;;
52934;SDS011;38802;50.198;19.796;2023-03-01T14:11:26;16.00;;;10.40;;
52934;SDS011;38802;50.198;19.796;2023-03-01T14:19:29;21.40;;;11.70;;
52934;SDS011;38802;50.198;19.796;2023-03-01T14:22:03;10.80;;;9.50;;
52934;SDS011;38802;50.198;19.796;2023-03-01T14:24:44;12.50;;;9.60;;
52934;SDS011;38802;50.198;19.796;2023-03-01T14:27:16;13.30;;;9.80;;
52934;SDS011;38802;50.198;19.796;2023-03-01T14:29:59;11.10;;;8.80;;
52934;SDS011;38802;50.198;19.796;2023-03-01T14:32:30;14.70;;;10.00;;
52934;SDS011;38802;50.198;19.796;2023-03-01T14:35:00;15.30;;;10.00;;
52934;SDS011;38802;50.198;19.796;2023-03-01T14:37:29;14.10;;;10.00;;
52934;SDS011;38802;50.198;19.796;2023-03-01T14:40:00;14.70;;;10.30;;
52934;SDS011;38802;50.198;19.796;2023-03-01T14:42:36;17.20;;;12.70;;
52934;SDS011;38802;50.198;19.796;2023-03-01T14:45:04;16.50;;;11.50;;
52934;SDS011;38802;50.198;19.796;2023-03-01T14:47:35;15.70;;;10.50;;
52934;SDS011;38802;50.198;19.796;2023-03-01T14:53:00;19.70;;;11.80;;
52934;SDS011;38802;50.198;19.796;2023-03-01T14:55:33;20.30;;;12.50;;
52934;SDS011;38802;50.198;19.796;2023-03-01T14:58:04;19.60;;;12.80;;
52934;SDS011;38802;50.198;19.796;2023-03-01T15:00:34;17.20;;;13.10;;
52934;SDS011;38802;50.198;19.796;2023-03-01T15:03:24;17.90;;;12.70;;
52934;SDS011;38802;50.198;19.796;2023-03-01T15:06:01;24.20;;;13.60;;
52934;SDS011;38802;50.198;19.796;2023-03-01T15:08:30;21.00;;;14.10;;
52934;SDS011;38802;50.198;19.796;2023-03-01T15:11:15;27.60;;;14.50;;
52934;SDS011;38802;50.198;19.796;2023-03-01T15:13:51;26.20;;;15.20;;
52934;SDS011;38802;50.198;19.796;2023-03-01T15:18:57;23.60;;;16.50;;
52934;SDS011;38802;50.198;19.796;2023-03-01T15:21:32;23.90;;;15.80;;
52934;SDS011;38802;50.198;19.796;2023-03-01T15:26:57;29.80;;;16.70;;
52934;SDS011;38802;50.198;19.796;2023-03-01T15:29:34;28.50;;;16.30;;
52934;SDS011;38802;50.198;19.796;2023-03-01T15:40:56;26.20;;;16.60;;
52934;SDS011;38802;50.198;19.796;2023-03-01T15:46:17;28.80;;;16.60;;
52934;SDS011;38802;50.198;19.796;2023-03-01T15:48:50;27.60;;;16.70;;
52934;SDS011;38802;50.198;19.796;2023-03-01T15:51:26;27.60;;;16.20;;
52934;SDS011;38802;50.198;19.796;2023-03-01T15:54:01;30.20;;;17.10;;
52934;SDS011;38802;50.198;19.796;2023-03-01T15:56:32;26.10;;;15.80;;
52934;SDS011;38802;50.198;19.796;2023-03-01T15:59:01;29.40;;;17.10;;
52934;SDS011;38802;50.198;19.796;2023-03-01T16:01:30;24.70;;;16.40;;
52934;SDS011;38802;50.198;19.796;2023-03-01T16:04:02;29.30;;;17.10;;
52934;SDS011;38802;50.198;19.796;2023-03-01T16:06:30;33.80;;;20.30;;
52934;SDS011;38802;50.198;19.796;2023-03-01T16:08:59;32.10;;;17.30;;
52934;SDS011;38802;50.198;19.796;2023-03-01T16:11:27;27.10;;;16.30;;
52934;SDS011;38802;50.198;19.796;2023-03-01T16:13:55;30.60;;;17.60;;
52934;SDS011;38802;50.198;19.796;2023-03-01T16:16:23;29.20;;;18.30;;
52934;SDS011;38802;50.198;19.796;2023-03-01T16:18:52;39.30;;;25.00;;
52934;SDS011;38802;50.198;19.796;2023-03-01T16:21:23;38.80;;;25.10;;
52934;SDS011;38802;50.198;19.796;2023-03-01T16:23:52;28.80;;;18.10;;
52934;SDS011;38802;50.198;19.796;2023-03-01T16:26:20;37.00;;;19.80;;
52934;SDS011;38802;50.198;19.796;2023-03-01T16:28:48;30.90;;;17.10;;
52934;SDS011;38802;50.198;19.796;2023-03-01T16:31:17;33.80;;;17.20;;
52934;SDS011;38802;50.198;19.796;2023-03-01T16:33:48;33.90;;;18.50;;
52934;SDS011;38802;50.198;19.796;2023-03-01T16:36:18;31.60;;;16.60;;
52934;SDS011;38802;50.198;19.796;2023-03-01T16:38:51;26.20;;;16.40;;
52934;SDS011;38802;50.198;19.796;2023-03-01T16:41:20;29.70;;;17.40;;
52934;SDS011;38802;50.198;19.796;2023-03-01T16:43:50;32.50;;;20.90;;
52934;SDS011;38802;50.198;19.796;2023-03-01T16:46:20;39.00;;;23.90;;
52934;SDS011;38802;50.198;19.796;2023-03-01T16:48:53;45.60;;;24.70;;
52934;SDS011;38802;50.198;19.796;2023-03-01T16:51:22;43.30;;;23.10;;
52934;SDS011;38802;50.198;19.796;2023-03-01T16:53:51;53.10;;;27.60;;
52934;SDS011;38802;50.198;19.796;2023-03-01T16:56:20;98.00;;;47.20;;
52934;SDS011;38802;50.198;19.796;2023-03-01T16:58:48;85.10;;;42.90;;
52934;SDS011;38802;50.198;19.796;2023-03-01T17:01:17;77.90;;;40.30;;
52934;SDS011;38802;50.198;19.796;2023-03-01T17:03:47;96.50;;;44.40;;
52934;SDS011;38802;50.198;19.796;2023-03-01T17:06:18;85.90;;;37.90;;
52934;SDS011;38802;50.198;19.796;2023-03-01T17:08:48;67.10;;;31.30;;
52934;SDS011;38802;50.198;19.796;2023-03-01T17:11:16;82.40;;;36.10;;
52934;SDS011;38802;50.198;19.796;2023-03-01T17:13:47;93.60;;;42.70;;
52934;SDS011;38802;50.198;19.796;2023-03-01T17:16:16;89.30;;;37.50;;
52934;SDS011;38802;50.198;19.796;2023-03-01T17:18:47;60.20;;;27.10;;
52934;SDS011;38802;50.198;19.796;2023-03-01T17:21:15;53.30;;;23.70;;
52934;SDS011;38802;50.198;19.796;2023-03-01T17:23:45;39.00;;;21.30;;